Time;durP1;ratioP1;P1;durP2;ratioP2;P2;SDS_P1;SDS_P2;PMS_P1;PMS_P2;Temp;Humidity;BMP_temperature;BMP_pressure;BME280_temperature;BME280_humidity;BME280_pressure;Samples;Min_cycle;Max_cycle;Signal;HPM_P1;HPM_P2
2023/06/21 00:00:37;;;;;;;7.25;5.32;;;;;;;18.59;96.80;101108.03;5048680;28;20052;-82
2023/06/21 00:03:04;;;;;;;6.80;5.30;;;;;;;18.59;96.55;101117.69;5050970;28;20072;-82
2023/06/21 00:05:32;;;;;;;7.88;5.57;;;;;;;18.55;96.26;101111.75;5050316;28;20025;-82
2023/06/21 00:07:58;;;;;;;6.53;5.50;;;;;;;18.53;96.66;101116.25;5050309;28;20101;-82
2023/06/21 00:10:25;;;;;;;7.97;5.47;;;;;;;18.50;96.48;101109.38;5050904;28;20025;-82
2023/06/21 00:12:51;;;;;;;6.78;5.43;;;;;;;18.48;97.05;101113.88;5052405;28;20028;-82
2023/06/21 00:15:17;;;;;;;7.68;5.70;;;;;;;18.46;97.14;101117.53;5053913;28;20083;-82
2023/06/21 00:17:42;;;;;;;7.30;5.50;;;;;;;18.45;97.42;101121.94;5051067;28;20029;-82
2023/06/21 00:20:10;;;;;;;7.65;5.28;;;;;;;18.44;96.97;101124.69;5053100;28;20024;-82
2023/06/21 00:22:36;;;;;;;7.40;5.43;;;;;;;18.43;97.27;101130.88;5034401;28;20568;-82
2023/06/21 00:25:01;;;;;;;8.45;5.70;;;;;;;18.42;97.52;101126.53;5053719;28;20020;-82
2023/06/21 00:27:27;;;;;;;8.10;5.30;;;;;;;18.40;97.20;101125.78;5050165;28;20071;-82
2023/06/21 00:29:52;;;;;;;7.75;5.60;;;;;;;18.41;97.67;101136.22;5051858;28;20487;-82
2023/06/21 00:32:18;;;;;;;7.50;5.85;;;;;;;18.39;97.59;101134.59;5052915;28;20059;-82
2023/06/21 00:34:46;;;;;;;7.15;5.55;;;;;;;18.37;97.61;101132.03;5052850;28;20048;-82
2023/06/21 00:37:12;;;;;;;7.88;5.35;;;;;;;18.35;97.64;101136.56;5020377;28;20474;-82
2023/06/21 00:39:37;;;;;;;7.72;5.80;;;;;;;18.33;97.70;101122.63;5052970;28;20023;-82
2023/06/21 00:42:02;;;;;;;8.30;5.60;;;;;;;18.32;98.06;101132.28;5052998;28;20024;-82
2023/06/21 00:44:28;;;;;;;8.02;5.63;;;;;;;18.30;97.55;101131.53;5051319;28;20487;-82
2023/06/21 00:46:53;;;;;;;7.40;5.78;;;;;;;18.31;97.70;101135.03;5049545;28;20029;-82
2023/06/21 00:49:18;;;;;;;7.72;6.20;;;;;;;18.30;97.99;101139.44;5050002;28;20033;-82
2023/06/21 00:51:45;;;;;;;7.80;5.82;;;;;;;18.30;98.23;101139.44;5048466;28;20118;-82
2023/06/21 00:54:16;;;;;;;8.23;5.70;;;;;;;18.29;98.08;101137.72;5050318;28;20027;-82
2023/06/21 00:56:45;;;;;;;7.35;5.68;;;;;;;18.29;98.05;101145.63;5049064;28;20045;-82
2023/06/21 00:59:11;;;;;;;7.53;6.15;;;;;;;18.28;97.69;101136.03;5050220;28;20031;-82
2023/06/21 01:01:37;;;;;;;9.65;6.10;;;;;;;18.27;98.17;101144.00;5034174;28;20108;-82
2023/06/21 01:04:08;;;;;;;9.20;6.22;;;;;;;18.25;98.10;101154.66;5048804;28;20140;-82
2023/06/21 01:06:50;;;;;;;;;;;;;;;18.29;95.12;101148.25;5052863;28;20032;-82
2023/06/21 01:09:33;;;;;;;6.90;5.43;;;;;;;18.25;97.33;101157.28;5048583;28;20383;-82
2023/06/21 01:12:30;;;;;;;7.75;5.63;;;;;;;18.24;97.10;101155.56;5051706;28;20052;-82
2023/06/21 01:15:08;;;;;;;9.10;6.30;;;;;;;18.20;98.27;101152.22;5039653;28;20436;-82
2023/06/21 01:17:39;;;;;;;6.65;5.63;;;;;;;18.20;97.93;101159.28;5050266;28;20040;-82
2023/06/21 01:20:13;;;;;;;7.72;6.13;;;;;;;18.19;98.56;101170.75;5047205;28;20357;-82
2023/06/21 01:22:59;;;;;;;7.10;5.78;;;;;;;18.18;98.34;101161.16;5047962;28;20071;-82
2023/06/21 01:26:02;;;;;;;7.22;5.95;;;;;;;18.17;98.43;101152.41;5050479;28;20181;-82
2023/06/21 01:28:58;;;;;;;7.57;6.13;;;;;;;18.15;98.42;101145.50;5051113;28;20051;-82
2023/06/21 01:31:25;;;;;;;7.05;5.95;;;;;;;18.14;99.17;101143.81;5048541;28;20032;-82
2023/06/21 01:33:51;;;;;;;8.88;6.30;;;;;;;18.14;99.16;101154.34;5048835;28;20428;-82
2023/06/21 01:36:18;;;;;;;8.57;6.07;;;;;;;18.14;99.11;101164.88;5047311;28;20098;-82
2023/06/21 01:38:44;;;;;;;7.63;6.18;;;;;;;18.12;98.89;101167.59;5048974;28;20032;-82
2023/06/21 01:41:12;;;;;;;8.15;6.32;;;;;;;18.11;98.95;101160.63;5051195;28;20021;-82
2023/06/21 01:43:38;;;;;;;7.88;6.15;;;;;;;18.12;98.98;101164.09;5032024;28;20025;-82
2023/06/21 01:46:05;;;;;;;7.78;6.22;;;;;;;18.11;99.38;101170.28;5045100;28;20033;-82
2023/06/21 01:48:33;;;;;;;8.35;6.63;;;;;;;18.10;99.30;101171.25;5049447;28;20025;-82
2023/06/21 01:51:00;;;;;;;9.43;6.28;;;;;;;18.08;99.01;101176.59;5048312;28;20037;-82
2023/06/21 01:53:26;;;;;;;8.25;6.78;;;;;;;18.07;99.71;101176.69;5047311;28;20025;-82
2023/06/21 01:55:52;;;;;;;8.57;6.55;;;;;;;18.06;99.87;101167.91;5045350;28;20017;-82
2023/06/21 01:58:18;;;;;;;9.98;6.70;;;;;;;18.04;99.62;101173.28;5045887;28;20025;-82
2023/06/21 02:00:44;;;;;;;7.60;6.05;;;;;;;18.01;98.51;101170.78;5044766;28;20036;-82
2023/06/21 02:03:10;;;;;;;7.57;6.10;;;;;;;17.99;97.75;101171.81;5044080;28;20049;-82
2023/06/21 02:05:39;;;;;;;8.90;6.43;;;;;;;17.96;99.37;101175.41;5046550;28;20021;-82
2023/06/21 02:08:05;;;;;;;8.80;6.93;;;;;;;17.94;98.97;101185.16;5044953;28;20546;-82
2023/06/21 02:10:31;;;;;;;7.85;6.45;;;;;;;17.92;99.22;101181.78;5047495;28;20028;-82
2023/06/21 02:12:56;;;;;;;7.72;6.45;;;;;;;17.92;98.98;101191.44;5050534;28;20079;-82
2023/06/21 02:15:23;;;;;;;7.57;6.05;;;;;;;17.91;98.57;101187.97;5032025;28;20021;-82
2023/06/21 02:17:51;;;;;;;8.63;6.85;;;;;;;17.90;98.93;101188.91;5047055;28;20016;-82
2023/06/21 02:20:19;;;;;;;6.93;5.97;;;;;;;17.89;99.52;101184.56;5050864;28;20033;-82
2023/06/21 02:22:44;;;;;;;8.57;6.60;;;;;;;17.89;99.74;101181.94;5049265;28;20020;-82
2023/06/21 02:25:11;;;;;;;8.55;6.30;;;;;;;17.86;98.40;101179.44;5050071;28;20025;-82
2023/06/21 02:27:37;;;;;;;9.02;6.43;;;;;;;17.85;99.61;101198.78;5049212;28;20035;-82
2023/06/21 02:30:03;;;;;;;8.27;6.63;;;;;;;17.82;99.10;101201.56;5048168;28;20033;-82
2023/06/21 02:32:28;;;;;;;7.93;6.35;;;;;;;17.80;98.80;101212.19;5048007;28;20557;-82
2023/06/21 02:34:54;;;;;;;9.40;6.28;;;;;;;17.80;99.22;101206.06;5047784;28;20037;-82
2023/06/21 02:37:19;;;;;;;8.25;6.22;;;;;;;17.78;99.29;101208.78;5050865;28;20044;-83
2023/06/21 02:39:44;;;;;;;8.02;6.47;;;;;;;17.78;99.68;101214.06;5045920;28;20039;-83
2023/06/21 02:42:10;;;;;;;8.75;7.07;;;;;;;17.78;99.90;101210.56;5046817;28;20037;-82
2023/06/21 02:44:35;;;;;;;8.57;6.82;;;;;;;17.78;100.00;101215.81;5048099;28;20032;-85
2023/06/21 02:47:01;;;;;;;8.15;6.47;;;;;;;17.78;99.97;101231.59;5049385;28;20032;-82
2023/06/21 02:49:26;;;;;;;7.10;5.93;;;;;;;17.73;99.31;101221.31;5048660;28;20032;-83
2023/06/21 02:51:52;;;;;;;9.38;6.78;;;;;;;17.73;99.63;101224.81;5046897;28;20028;-82
2023/06/21 02:54:18;;;;;;;8.85;7.18;;;;;;;17.75;100.00;101233.50;5045293;28;20074;-82
2023/06/21 02:56:43;;;;;;;9.55;7.45;;;;;;;17.75;100.00;101233.50;5049539;28;20360;-83
2023/06/21 02:59:09;;;;;;;9.23;7.07;;;;;;;17.74;100.00;101237.03;5046903;28;20029;-82
2023/06/21 03:01:34;;;;;;;8.52;7.10;;;;;;;17.72;100.00;101243.28;5046501;28;20476;-83
2023/06/21 03:03:59;;;;;;;9.20;7.60;;;;;;;17.72;100.00;101243.28;5048967;28;20048;-82
2023/06/21 03:06:25;;;;;;;8.50;7.13;;;;;;;17.70;99.59;101246.00;5045905;28;20028;-82
2023/06/21 03:08:51;;;;;;;9.20;7.32;;;;;;;17.69;99.90;101241.69;5046823;28;20464;-82
2023/06/21 03:11:17;;;;;;;9.00;7.50;;;;;;;17.69;99.86;101252.19;5048367;28;20027;-82
2023/06/21 03:13:42;;;;;;;8.13;6.88;;;;;;;17.68;99.73;101258.38;5049526;28;20028;-82
2023/06/21 03:16:07;;;;;;;8.60;7.00;;;;;;;17.67;99.40;101261.94;5049867;28;20399;-83
2023/06/21 03:18:33;;;;;;;9.50;7.00;;;;;;;17.65;99.90;101260.31;5045852;28;20059;-82
2023/06/21 03:21:01;;;;;;;9.15;7.30;;;;;;;17.64;100.00;101261.25;5049571;28;20029;-82
2023/06/21 03:23:27;;;;;;;9.35;6.82;;;;;;;17.64;100.00;101275.25;5051924;28;20051;-82
2023/06/21 03:25:52;;;;;;;9.23;7.28;;;;;;;17.61;100.00;101272.75;5049273;28;20032;-83
2023/06/21 03:28:17;;;;;;;10.70;7.28;;;;;;;17.61;100.00;101280.66;5051199;28;20029;-82
2023/06/21 03:30:43;;;;;;;9.70;7.50;;;;;;;17.60;100.00;101286.84;5051460;28;20519;-82
2023/06/21 03:33:09;;;;;;;9.98;7.40;;;;;;;17.60;100.00;101284.19;5054093;28;20073;-82
2023/06/21 03:35:35;;;;;;;9.13;7.03;;;;;;;17.60;100.00;101281.56;5050836;28;20052;-82
2023/06/21 03:38:00;;;;;;;9.63;7.38;;;;;;;17.59;100.00;101279.91;5050461;28;20054;-82
2023/06/21 03:40:26;;;;;;;8.25;7.07;;;;;;;17.59;100.00;101285.16;5049843;28;20487;-82
2023/06/21 03:42:51;;;;;;;7.95;6.82;;;;;;;17.58;99.99;101273.78;5052841;28;20031;-82
2023/06/21 03:45:16;;;;;;;9.45;6.15;;;;;;;17.56;99.23;101288.78;5050171;28;20024;-82
2023/06/21 03:47:43;;;;;;;8.52;6.38;;;;;;;17.54;100.00;101287.16;5049482;28;20025;-82
2023/06/21 03:50:09;;;;;;;8.57;6.85;;;;;;;17.55;100.00;101287.06;5050172;28;20419;-82
2023/06/21 03:52:35;;;;;;;9.30;6.75;;;;;;;17.57;100.00;101282.59;5052370;28;20116;-82
2023/06/21 03:55:01;;;;;;;7.45;6.10;;;;;;;17.58;99.90;101280.81;5045483;28;20112;-82
2023/06/21 03:57:27;;;;;;;8.93;6.30;;;;;;;17.58;100.00;101278.19;5047914;28;20030;-82
2023/06/21 03:59:52;;;;;;;7.95;6.18;;;;;;;17.57;99.91;101277.31;5045447;28;20021;-82
2023/06/21 04:02:20;;;;;;;7.45;6.35;;;;;;;17.57;100.00;101281.75;5047041;28;20024;-82
2023/06/21 04:04:45;;;;;;;10.77;7.68;;;;;;;17.59;100.00;101279.91;5025872;28;20028;-83
2023/06/21 04:07:12;;;;;;;9.63;7.90;;;;;;;17.63;100.00;101288.50;5048373;28;20388;-82
2023/06/21 04:09:38;;;;;;;11.30;7.80;;;;;;;17.65;100.00;101292.75;5048505;28;20029;-82
2023/06/21 04:12:03;;;;;;;10.35;7.55;;;;;;;17.68;100.00;101295.22;5050263;28;20044;-82
2023/06/21 04:14:29;;;;;;;9.80;7.53;;;;;;;17.72;100.00;101288.91;5048107;28;20063;-83
2023/06/21 04:16:54;;;;;;;9.75;7.68;;;;;;;17.75;100.00;101301.91;5051896;28;20024;-82
2023/06/21 04:19:20;;;;;;;10.82;7.75;;;;;;;17.77;100.00;101298.31;5049526;28;20087;-83
2023/06/21 04:21:45;;;;;;;11.20;8.45;;;;;;;17.80;100.00;101295.53;5052000;28;20100;-82
2023/06/21 04:24:10;;;;;;;10.55;7.65;;;;;;;17.83;100.00;101303.28;5052595;28;20471;-83
2023/06/21 04:26:35;;;;;;;12.07;8.15;;;;;;;17.83;100.00;101308.56;5054092;28;20021;-83
2023/06/21 04:29:01;;;;;;;12.15;7.78;;;;;;;17.85;100.00;101322.50;5053426;28;20473;-83
2023/06/21 04:31:28;;;;;;;11.90;8.27;;;;;;;17.86;100.00;101316.31;5048845;28;20036;-83
2023/06/21 04:33:54;;;;;;;10.50;8.38;;;;;;;17.87;100.00;101320.66;5052134;28;20429;-82
2023/06/21 04:36:19;;;;;;;10.32;8.25;;;;;;;17.87;100.00;101315.38;5033915;28;20480;-83
2023/06/21 04:38:49;;;;;;;10.90;8.43;;;;;;;17.90;100.00;101320.50;5052432;28;20446;-83
2023/06/21 04:41:17;;;;;;;11.35;8.35;;;;;;;17.90;100.00;101325.78;5045928;28;20112;-83
2023/06/21 04:43:43;;;;;;;10.93;8.55;;;;;;;17.91;100.00;101330.09;5043063;28;20021;-83
2023/06/21 04:46:08;;;;;;;10.70;8.90;;;;;;;17.92;100.00;101334.44;5049963;28;20117;-83
2023/06/21 04:48:34;;;;;;;10.55;8.35;;;;;;;17.96;100.00;101340.41;5051288;28;20029;-83
2023/06/21 04:50:59;;;;;;;10.70;8.73;;;;;;;17.99;100.00;101341.13;5048853;28;20107;-83
2023/06/21 04:53:29;;;;;;;12.20;9.15;;;;;;;18.01;100.00;101334.00;5049564;28;20032;-82
2023/06/21 04:55:54;;;;;;;10.65;8.55;;;;;;;18.03;100.00;101336.56;5031381;28;20021;-83
2023/06/21 04:58:20;;;;;;;11.07;8.60;;;;;;;18.05;100.00;101334.72;5050024;28;20021;-83
2023/06/21 05:00:45;;;;;;;11.05;8.43;;;;;;;18.07;100.00;101340.75;5048321;28;20021;-83
2023/06/21 05:03:10;;;;;;;11.25;8.77;;;;;;;18.11;100.00;101330.91;5048538;28;20061;-83
2023/06/21 05:05:35;;;;;;;12.98;9.32;;;;;;;18.12;100.00;101332.63;5051188;28;20033;-83
2023/06/21 05:08:01;;;;;;;11.82;8.68;;;;;;;18.18;100.00;101340.22;5053137;28;20464;-82
2023/06/21 05:10:26;;;;;;;11.27;9.15;;;;;;;18.20;100.00;101341.00;5048964;28;20033;-82
2023/06/21 05:12:51;;;;;;;13.05;9.75;;;;;;;18.23;100.00;101346.13;5050972;28;20024;-82
2023/06/21 05:15:17;;;;;;;13.07;9.25;;;;;;;18.27;100.00;101355.59;5049327;28;20025;-82
2023/06/21 05:17:42;;;;;;;12.27;9.20;;;;;;;18.29;100.00;101353.69;5051599;28;20028;-82
2023/06/21 05:20:08;;;;;;;12.63;9.40;;;;;;;18.34;100.00;101351.69;5047873;28;20021;-82
2023/06/21 05:22:34;;;;;;;11.98;9.50;;;;;;;18.39;100.00;101361.16;5049340;28;20056;-82
2023/06/21 05:25:02;;;;;;;12.75;10.55;;;;;;;18.43;100.00;101366.19;5046957;28;20021;-84
2023/06/21 05:27:27;;;;;;;11.95;9.57;;;;;;;18.49;100.00;101368.50;5033533;28;20033;-83
2023/06/21 05:29:52;;;;;;;13.05;10.25;;;;;;;18.55;100.00;101369.13;5048020;28;20070;-82
2023/06/21 05:32:17;;;;;;;14.20;10.82;;;;;;;18.60;100.00;101373.25;5043453;28;20028;-82
2023/06/21 05:34:43;;;;;;;13.35;10.40;;;;;;;18.62;100.00;101375.78;5046700;28;20025;-85
2023/06/21 05:37:08;;;;;;;14.25;10.32;;;;;;;18.62;100.00;101370.50;5047858;28;20056;-82
2023/06/21 05:39:33;;;;;;;14.18;10.82;;;;;;;18.62;100.00;101371.34;5047996;28;20047;-83
2023/06/21 05:41:58;;;;;;;14.48;12.48;;;;;;;18.65;100.00;101368.56;5048129;28;20536;-83
2023/06/21 05:44:24;;;;;;;15.32;11.82;;;;;;;18.70;100.00;101372.75;5051239;28;20024;-83
2023/06/21 05:46:49;;;;;;;15.27;12.50;;;;;;;18.77;100.00;101371.53;5050159;28;20439;-83
2023/06/21 05:49:14;;;;;;;16.92;12.23;;;;;;;18.87;100.00;101379.81;5050961;28;20598;-83
2023/06/21 05:51:40;;;;;;;16.15;12.07;;;;;;;18.96;100.00;101374.06;5048618;28;20079;-82
2023/06/21 05:54:05;;;;;;;16.75;12.27;;;;;;;18.98;100.00;101382.75;5052431;28;20021;-83
2023/06/21 05:56:31;;;;;;;14.95;11.18;;;;;;;18.96;98.73;101385.44;5046622;28;21591;-83
2023/06/21 05:58:57;;;;;;;15.10;11.32;;;;;;;18.93;97.96;101396.16;5051622;28;20048;-82
2023/06/21 06:01:22;;;;;;;16.58;12.45;;;;;;;18.95;99.10;101396.97;5045914;28;20411;-82
2023/06/21 06:03:47;;;;;;;16.00;11.73;;;;;;;19.00;99.31;101403.75;5048746;28;20041;-84
2023/06/21 06:06:15;;;;;;;17.00;12.38;;;;;;;19.02;99.18;101404.53;5048117;28;20063;-83
2023/06/21 06:08:40;;;;;;;17.48;12.10;;;;;;;19.06;99.04;101416.63;5047765;28;20025;-83
2023/06/21 06:11:06;;;;;;;16.48;12.38;;;;;;;19.07;98.26;101410.41;5048577;28;20025;-83
2023/06/21 06:13:31;;;;;;;15.85;11.82;;;;;;;19.08;96.79;101406.84;5049412;28;20341;-84
2023/06/21 06:15:57;;;;;;;16.40;11.63;;;;;;;19.10;97.59;101413.72;5044966;28;20039;-83
2023/06/21 06:18:22;;;;;;;16.58;11.65;;;;;;;19.13;96.86;101407.44;5049273;28;20017;-83
2023/06/21 06:20:47;;;;;;;17.50;11.35;;;;;;;19.17;96.15;101409.00;5050763;28;20475;-83
2023/06/21 06:23:12;;;;;;;16.27;11.10;;;;;;;19.18;96.21;101410.69;5049702;28;20104;-83
2023/06/21 06:25:38;;;;;;;14.60;10.77;;;;;;;19.14;95.09;101419.69;5041069;28;20029;-85
2023/06/21 06:28:04;;;;;;;15.70;11.48;;;;;;;19.13;95.67;101428.53;5049064;28;20032;-81
2023/06/21 06:30:30;;;;;;;16.05;11.30;;;;;;;19.11;95.71;101435.69;5047662;28;20388;-82
2023/06/21 06:32:55;;;;;;;14.60;10.88;;;;;;;19.11;96.04;101440.97;5046050;28;20025;-80
2023/06/21 06:35:20;;;;;;;15.90;11.73;;;;;;;19.10;95.13;101448.03;5048488;28;20151;-81
2023/06/21 06:37:45;;;;;;;15.52;11.38;;;;;;;19.08;94.66;101447.25;5044721;28;20029;-82
2023/06/21 06:40:11;;;;;;;14.73;10.43;;;;;;;19.09;93.56;101448.13;5049580;28;20027;-86
2023/06/21 06:42:37;;;;;;;14.70;11.55;;;;;;;19.11;94.42;101446.25;5047865;28;20094;-82
2023/06/21 06:45:02;;;;;;;14.38;11.02;;;;;;;19.17;95.20;101445.91;5048096;28;20017;-83
2023/06/21 06:47:29;;;;;;;14.70;11.38;;;;;;;19.19;94.06;101454.59;5047390;28;20037;-83
2023/06/21 06:49:55;;;;;;;16.17;11.75;;;;;;;19.22;93.58;101462.34;5040202;28;20056;-83
2023/06/21 06:52:20;;;;;;;14.88;11.52;;;;;;;19.20;92.91;101460.75;5045848;28;20043;-83
2023/06/21 06:54:45;;;;;;;13.65;10.43;;;;;;;19.22;93.19;101465.00;5047968;28;20520;-84
2023/06/21 06:57:11;;;;;;;15.38;11.52;;;;;;;19.26;92.60;101469.19;5032626;28;20075;-84
2023/06/21 06:59:36;;;;;;;14.90;11.05;;;;;;;19.33;92.75;101466.22;5051345;28;20472;-83
2023/06/21 07:02:02;;;;;;;14.35;10.85;;;;;;;19.39;92.60;101472.00;5046291;28;20120;-83
2023/06/21 07:04:28;;;;;;;15.60;11.00;;;;;;;19.44;91.32;101474.44;5048159;28;20063;-82
2023/06/21 07:06:54;;;;;;;18.38;11.75;;;;;;;19.48;92.09;101481.22;5042708;28;20500;-82
2023/06/21 07:09:19;;;;;;;15.88;11.27;;;;;;;19.51;92.09;101488.97;5048959;28;20108;-82
2023/06/21 07:11:44;;;;;;;15.07;11.43;;;;;;;19.54;90.20;101487.97;5051229;28;20100;-84
2023/06/21 07:14:10;;;;;;;13.60;11.02;;;;;;;19.60;90.62;101484.16;5044148;28;20495;-84
2023/06/21 07:16:39;;;;;;;15.75;11.07;;;;;;;19.68;90.71;101481.94;5047512;28;20071;-80
2023/06/21 07:19:05;;;;;;;13.15;10.75;;;;;;;19.74;89.64;101478.97;5048538;28;20021;-82
2023/06/21 07:21:30;;;;;;;13.48;9.90;;;;;;;19.80;88.40;101481.31;5041322;28;20042;-82
2023/06/21 07:23:55;;;;;;;13.60;9.48;;;;;;;19.84;85.60;101497.81;5048418;28;20423;-84
2023/06/21 07:26:20;;;;;;;13.68;9.57;;;;;;;19.82;86.41;101489.97;5051211;28;20045;-84
2023/06/21 07:28:46;;;;;;;11.55;8.80;;;;;;;19.78;85.47;101493.72;5047459;28;20025;-83
2023/06/21 07:31:11;;;;;;;13.10;9.02;;;;;;;19.77;87.13;101491.16;5048360;28;20033;-82
2023/06/21 07:33:37;;;;;;;11.88;8.98;;;;;;;19.75;86.18;101488.59;5045719;28;20048;-85
2023/06/21 07:36:03;;;;;;;11.20;9.23;;;;;;;19.77;85.75;101492.03;5050171;28;20495;-83
2023/06/21 07:38:28;;;;;;;10.45;9.00;;;;;;;19.78;85.69;101488.44;5049800;28;20021;-83
2023/06/21 07:40:53;;;;;;;12.20;9.40;;;;;;;19.84;86.82;101492.53;5051039;28;20078;-83
2023/06/21 07:43:20;;;;;;;11.02;9.07;;;;;;;19.86;86.91;101491.50;5049173;28;20036;-84
2023/06/21 07:45:45;;;;;;;10.57;8.60;;;;;;;19.91;85.46;101493.09;5048453;28;20032;-83
2023/06/21 07:48:10;;;;;;;11.77;8.88;;;;;;;19.94;86.12;101495.56;5050045;28;20025;-83
2023/06/21 07:50:36;;;;;;;11.85;8.18;;;;;;;19.97;85.68;101493.59;5050944;28;20021;-84
2023/06/21 07:53:01;;;;;;;11.18;8.85;;;;;;;20.02;85.14;101501.25;5032573;28;20029;-83
2023/06/21 07:55:27;;;;;;;12.25;8.05;;;;;;;20.05;83.40;101501.09;5044065;28;20029;-82
2023/06/21 07:57:52;;;;;;;9.73;7.38;;;;;;;20.11;83.23;101507.81;5041623;28;20476;-82
2023/06/21 08:00:17;;;;;;;11.18;7.30;;;;;;;;;;5047491;28;20020;-83
2023/06/21 08:02:49;;;;;;;10.27;7.40;;;;;;;20.20;83.38;101509.97;5045908;28;20056;-82
2023/06/21 08:05:15;;;;;;;10.40;7.93;;;;;;;20.24;82.97;101510.63;5041748;28;20124;-83
2023/06/21 08:07:41;;;;;;;10.48;7.50;;;;;;;20.27;83.19;101511.31;5045119;28;20108;-83
2023/06/21 08:10:07;;;;;;;9.90;7.80;;;;;;;20.30;81.78;101505.84;5048130;28;20025;-82
2023/06/21 08:12:32;;;;;;;11.77;7.72;;;;;;;20.33;81.83;101518.03;5050832;28;20055;-82
2023/06/21 08:14:58;;;;;;;9.77;7.22;;;;;;;20.36;79.60;101509.09;5046604;28;20371;-80
2023/06/21 08:17:23;;;;;;;10.00;7.22;;;;;;;20.39;80.87;101520.34;5052188;28;20121;-80
2023/06/21 08:19:48;;;;;;;9.20;6.68;;;;;;;20.43;81.10;101519.22;5047567;28;20022;-78
2023/06/21 08:22:14;;;;;;;10.18;7.07;;;;;;;20.45;79.62;101517.34;5043424;28;20025;-83
2023/06/21 08:24:39;;;;;;;9.95;6.82;;;;;;;20.46;79.05;101524.34;5042351;28;20039;-80
2023/06/21 08:27:04;;;;;;;9.13;7.10;;;;;;;20.49;79.43;101530.41;5048110;28;20029;-80
2023/06/21 08:29:30;;;;;;;9.73;7.00;;;;;;;20.52;79.09;101530.19;5042006;28;20345;-80
2023/06/21 08:31:55;;;;;;;9.80;7.35;;;;;;;20.55;80.41;101536.19;5043486;28;20087;-83
2023/06/21 08:34:20;;;;;;;9.55;7.25;;;;;;;20.56;78.21;101529.09;5043246;28;20031;-82
2023/06/21 08:36:45;;;;;;;8.60;7.20;;;;;;;20.59;78.50;101536.84;5043873;28;20036;-83
2023/06/21 08:39:11;;;;;;;11.57;7.65;;;;;;;20.62;78.76;101531.41;5050757;28;20017;-83
2023/06/21 08:41:38;;;;;;;9.40;7.75;;;;;;;20.66;77.62;101532.94;5050081;28;20029;-82
2023/06/21 08:44:03;;;;;;;9.75;7.28;;;;;;;20.72;76.88;101537.00;5053780;28;20108;-83
2023/06/21 08:46:32;;;;;;;10.00;7.55;;;;;;;20.76;75.11;101534.13;5048590;28;20109;-83
2023/06/21 08:49:03;;;;;;;9.18;7.38;;;;;;;20.84;74.71;101536.31;5046136;28;20083;-81
2023/06/21 08:51:28;;;;;;;10.33;7.50;;;;;;;20.88;73.91;101537.00;5030791;28;20029;-81
2023/06/21 08:54:05;;;;;;;11.40;8.13;;;;;;;20.93;75.56;101537.59;5046948;28;20074;-82
2023/06/21 08:56:37;;;;;;;8.90;7.63;;;;;;;20.97;73.17;101539.13;5043078;28;20031;-83
2023/06/21 08:59:11;;;;;;;7.63;6.60;;;;;;;20.98;70.90;101543.47;5046896;28;20034;-83
2023/06/21 09:01:49;;;;;;;9.77;7.32;;;;;;;21.04;73.45;101532.50;5043071;28;20116;-83
2023/06/21 09:04:17;;;;;;;8.90;7.65;;;;;;;21.09;74.36;101537.53;5042802;28;20050;-83
2023/06/21 09:06:43;;;;;;;12.02;9.07;;;;;;;21.11;73.60;101538.28;5029495;28;20040;-83
2023/06/21 09:09:10;;;;;;;11.68;8.82;;;;;;;21.16;74.96;101530.94;5046882;28;20040;-82
2023/06/21 09:11:40;;;;;;;9.90;8.32;;;;;;;21.23;75.54;101534.91;5046222;28;20033;-81
2023/06/21 09:14:06;;;;;;;8.68;7.22;;;;;;;21.27;70.69;101540.88;5046487;28;20079;-81
2023/06/21 09:16:32;;;;;;;7.88;7.07;;;;;;;21.31;71.10;101538.88;5045244;28;20033;-82
2023/06/21 09:18:57;;;;;;;10.27;7.78;;;;;;;21.35;72.82;101545.69;5046199;28;20096;-80
2023/06/21 09:21:23;;;;;;;7.60;6.65;;;;;;;21.34;69.78;101552.81;5046265;28;20029;-80
2023/06/21 09:23:49;;;;;;;9.50;7.30;;;;;;;21.35;70.02;101554.47;5044194;28;20075;-81
2023/06/21 09:26:14;;;;;;;8.55;7.28;;;;;;;21.37;69.93;101555.25;5044087;28;20036;-81
2023/06/21 09:28:40;;;;;;;8.55;7.57;;;;;;;21.41;69.17;101557.72;5044106;28;20460;-85
2023/06/21 09:31:06;;;;;;;10.60;6.40;;;;;;;21.45;66.96;101552.13;5046641;28;20029;-81
2023/06/21 09:33:31;;;;;;;7.35;5.93;;;;;;;21.50;67.06;101554.53;5044362;28;20037;-81
2023/06/21 09:35:57;;;;;;;6.32;4.97;;;;;;;21.58;66.75;101557.53;5042826;28;20032;-82
2023/06/21 09:38:24;;;;;;;6.28;5.20;;;;;;;21.62;67.00;101558.22;5040326;28;20119;-81
2023/06/21 09:40:49;;;;;;;7.07;4.97;;;;;;;21.66;65.18;101559.75;5041237;28;20044;-81
2023/06/21 09:43:15;;;;;;;5.05;4.20;;;;;;;21.69;63.52;101554.25;5046362;28;20490;-80
2023/06/21 09:45:40;;;;;;;5.00;3.63;;;;;;;21.78;64.29;101558.97;5045039;28;20029;-80
2023/06/21 09:48:05;;;;;;;5.53;3.38;;;;;;;21.84;62.93;101565.72;5044536;28;20021;-80
2023/06/21 09:50:41;;;;;;;7.53;3.55;;;;;;;21.89;64.40;101566.25;5041341;28;20025;-80
2023/06/21 09:53:11;;;;;;;4.30;3.15;;;;;;;21.91;62.05;101577.63;5043122;28;20037;-81
2023/06/21 09:55:36;;;;;;;4.80;3.08;;;;;;;21.93;62.46;101567.78;5040798;28;20040;-81
2023/06/21 09:58:03;;;;;;;5.00;3.47;;;;;;;21.93;61.85;101565.13;5045066;28;20028;-79
2023/06/21 10:00:38;;;;;;;6.72;3.80;;;;;;;21.93;62.82;101562.47;5043121;28;20033;-80
2023/06/21 10:03:03;;;;;;;5.13;3.55;;;;;;;21.96;62.46;101570.25;5020557;28;20049;-80
2023/06/21 10:05:29;;;;;;;6.95;3.78;;;;;;;22.00;61.87;101572.72;5043145;28;20024;-80
2023/06/21 10:07:54;;;;;;;5.78;3.83;;;;;;;22.03;63.06;101561.94;5043396;28;20036;-81
2023/06/21 10:10:20;;;;;;;4.88;4.03;;;;;;;22.09;65.55;101566.81;5044783;28;20475;-83
2023/06/21 10:12:52;;;;;;;6.45;3.72;;;;;;;22.14;63.85;101572.69;5046068;28;20024;-82
2023/06/21 10:15:18;;;;;;;6.22;4.45;;;;;;;22.11;62.01;101573.75;5047046;28;20037;-83
2023/06/21 10:17:45;;;;;;;7.30;5.28;;;;;;;22.02;62.64;101582.25;5043773;28;20021;-82
2023/06/21 10:20:14;;;;;;;6.47;4.85;;;;;;;21.99;63.07;101579.78;5041381;28;20028;-82
2023/06/21 10:22:39;;;;;;;6.70;4.13;;;;;;;22.06;61.22;101585.56;5041538;28;20025;-83
2023/06/21 10:25:05;;;;;;;6.40;3.85;;;;;;;22.12;61.26;101588.66;5043160;28;20029;-81
2023/06/21 10:27:32;;;;;;;6.53;4.45;;;;;;;22.19;62.92;101596.25;5037974;28;20029;-82
2023/06/21 10:29:58;;;;;;;7.35;4.80;;;;;;;22.19;63.76;101583.84;5042829;28;20028;-81
2023/06/21 10:32:25;;;;;;;6.13;3.85;;;;;;;22.22;60.16;101596.88;5044333;28;20021;-82
2023/06/21 10:35:16;;;;;;;5.18;3.50;;;;;;;22.31;63.13;101591.97;5040595;28;20518;-83
2023/06/21 10:37:56;;;;;;;4.70;3.60;;;;;;;22.37;62.81;101603.03;5042708;28;20067;-82
2023/06/21 10:40:22;;;;;;;5.10;3.77;;;;;;;22.42;60.84;101602.75;5044859;28;20020;-82
2023/06/21 10:42:49;;;;;;;4.57;3.20;;;;;;;22.47;57.98;101598.03;5042816;28;20025;-81
2023/06/21 10:45:16;;;;;;;6.20;2.70;;;;;;;22.51;58.01;101604.84;5037218;28;21827;-82
2023/06/21 10:47:41;;;;;;;5.00;2.75;;;;;;;22.59;58.46;101607.81;5040969;28;21808;-81
2023/06/21 10:50:09;;;;;;;6.10;2.97;;;;;;;22.68;58.59;101605.53;5042348;28;20052;-81
2023/06/21 10:52:35;;;;;;;4.03;3.08;;;;;;;22.75;58.15;101612.13;5042795;28;20484;-80
2023/06/21 10:55:02;;;;;;;4.10;2.40;;;;;;;22.81;56.06;101617.03;5040271;28;20067;-81
2023/06/21 10:57:29;;;;;;;3.15;2.38;;;;;;;22.81;55.72;101622.34;5042879;28;20028;-83
2023/06/21 10:59:56;;;;;;;2.92;2.15;;;;;;;22.81;55.56;101617.03;5039445;28;20029;-81
2023/06/21 11:02:23;;;;;;;2.97;2.10;;;;;;;22.83;55.17;101615.16;5043727;28;20092;-82
2023/06/21 11:05:17;;;;;;;3.13;2.17;;;;;;;22.80;57.03;101615.34;5044138;28;20081;-82
2023/06/21 11:08:00;;;;;;;2.97;2.58;;;;;;;22.78;57.89;101603.97;5045833;28;20106;-82
2023/06/21 11:10:43;;;;;;;3.50;2.67;;;;;;;22.78;58.47;101614.59;5043775;28;20033;-81
2023/06/21 11:13:11;;;;;;;4.35;2.80;;;;;;;22.76;57.13;101608.53;5043313;28;20025;-82
2023/06/21 11:15:40;;;;;;;3.78;2.22;;;;;;;22.77;56.83;101615.53;5042729;28;20033;-82
2023/06/21 11:18:08;;;;;;;3.00;2.22;;;;;;;22.79;54.82;101632.22;5045092;28;20033;-82